Time;durP1;ratioP1;P1;durP2;ratioP2;P2;SDS_P1;SDS_P2;PMS_P1;PMS_P2;Temp;Humidity;BMP_temperature;BMP_pressure;BME280_temperature;BME280_humidity;BME280_pressure;Samples;Min_cycle;Max_cycle;Signal;HPM_P1;HPM_P2
2024/01/11 00:00:35;;;;;;;;;;;;;;;19.74;36.94;102676.66;2059838;28;6177;-66
2024/01/11 00:01:36;;;;;;;;;;;;;;;19.74;36.86;102681.66;2057778;28;2174;-66
2024/01/11 00:02:38;;;;;;;;;;;;;;;19.73;36.88;102680.91;2058179;28;2122;-66
2024/01/11 00:03:39;;;;;;;;;;;;;;;19.72;36.88;102687.25;2053396;28;2352;-66
2024/01/11 00:04:41;;;;;;;;;;;;;;;19.72;36.89;102690.13;2050969;28;1934;-66
2024/01/11 00:05:42;;;;;;;;;;;;;;;19.71;36.93;102688.63;2062542;28;1977;-66
2024/01/11 00:06:44;;;;;;;;;;;;;;;19.70;37.05;102693.63;2060179;28;1613;-66
2024/01/11 00:07:45;;;;;;;;;;;;;;;19.70;36.99;102681.34;2058301;28;2079;-66
2024/01/11 00:08:47;;;;;;;;;;;;;;;19.70;36.97;102681.34;2059476;28;2156;-66
2024/01/11 00:09:48;;;;;;;;;;;;;;;19.70;36.94;102687.09;2058615;28;2114;-66
2024/01/11 00:10:50;;;;;;;;;;;;;;;19.70;36.94;102681.34;2059476;28;2214;-66
2024/01/11 00:11:51;;;;;;;;;;;;;;;19.70;36.89;102681.34;2057873;28;2385;-66
2024/01/11 00:12:53;;;;;;;;;;;;;;;19.70;36.91;102695.72;2060303;28;2121;-66
2024/01/11 00:13:54;;;;;;;;;;;;;;;19.69;36.77;102682.72;2057062;28;2140;-66
2024/01/11 00:14:56;;;;;;;;;;;;;;;19.69;36.93;102683.47;2057918;28;2145;-66
2024/01/11 00:15:57;;;;;;;;;;;;;;;19.69;36.96;102680.59;2058865;28;2247;-66
2024/01/11 00:16:58;;;;;;;;;;;;;;;19.69;36.95;102686.34;2059042;28;2231;-66
2024/01/11 00:18:00;;;;;;;;;;;;;;;19.69;36.86;102685.59;2057429;28;2187;-66
2024/01/11 00:19:02;;;;;;;;;;;;;;;19.70;36.85;102681.34;2061230;28;2149;-66
2024/01/11 00:20:03;;;;;;;;;;;;;;;19.71;36.84;102685.75;2049416;28;2182;-66
2024/01/11 00:21:05;;;;;;;;;;;;;;;19.70;36.82;102681.34;2053091;28;2377;-66
2024/01/11 00:22:06;;;;;;;;;;;;;;;19.70;36.77;102682.13;2058443;28;2070;-65
2024/01/11 00:23:08;;;;;;;;;;;;;;;19.71;36.72;102680.00;2058633;28;2154;-66
2024/01/11 00:24:09;;;;;;;;;;;;;;;19.72;36.83;102684.38;2060154;28;2257;-66
2024/01/11 00:25:11;;;;;;;;;;;;;;;19.72;36.87;102684.38;2058947;28;2377;-67
2024/01/11 00:26:12;;;;;;;;;;;;;;;19.72;36.91;102690.13;2058671;28;2211;-66
2024/01/11 00:27:14;;;;;;;;;;;;;;;19.73;36.84;102691.66;2059282;28;2065;-66
2024/01/11 00:28:15;;;;;;;;;;;;;;;19.73;36.86;102691.66;2058766;28;2161;-66
2024/01/11 00:29:16;;;;;;;;;;;;;;;19.73;36.88;102685.91;2059132;28;2181;-66
2024/01/11 00:30:18;;;;;;;;;;;;;;;19.72;36.72;102673.63;2058262;28;6101;-66
2024/01/11 00:31:19;;;;;;;;;;;;;;;19.72;36.83;102673.63;2058415;28;2388;-66
2024/01/11 00:32:21;;;;;;;;;;;;;;;19.73;36.86;102668.66;2060729;28;2128;-66
2024/01/11 00:33:22;;;;;;;;;;;;;;;19.73;36.77;102668.66;2051475;28;2142;-66
2024/01/11 00:34:24;;;;;;;;;;;;;;;19.73;36.79;102671.53;2051014;28;2134;-66
2024/01/11 00:35:26;;;;;;;;;;;;;;;19.72;36.89;102661.38;2058587;28;2122;-66
2024/01/11 00:36:28;;;;;;;;;;;;;;;19.74;36.88;102664.41;2058190;28;2196;-66
2024/01/11 00:37:29;;;;;;;;;;;;;;;19.73;36.84;102668.66;2059803;28;2238;-66
2024/01/11 00:38:31;;;;;;;;;;;;;;;19.74;36.78;102670.16;2057713;28;2082;-66
2024/01/11 00:39:32;;;;;;;;;;;;;;;19.73;36.82;102663.66;2059789;28;2176;-66
2024/01/11 00:40:34;;;;;;;;;;;;;;;19.73;36.76;102660.03;2057292;28;2125;-66
2024/01/11 00:41:35;;;;;;;;;;;;;;;19.72;36.82;102650.63;2047956;28;2540;-66
2024/01/11 00:42:37;;;;;;;;;;;;;;;19.70;36.93;102644.75;2051279;28;2535;-66
2024/01/11 00:43:38;;;;;;;;;;;;;;;19.71;36.80;102651.25;2057725;28;2078;-66
2024/01/11 00:44:40;;;;;;;;;;;;;;;19.70;36.82;102659.13;2059420;28;2270;-66
2024/01/11 00:45:41;;;;;;;;;;;;;;;19.69;36.89;102656.84;2059150;28;2136;-66
2024/01/11 00:46:43;;;;;;;;;;;;;;;19.69;36.81;102656.84;2059525;28;2165;-66
2024/01/11 00:47:44;;;;;;;;;;;;;;;19.69;36.88;102656.84;2057759;28;2133;-66
2024/01/11 00:48:46;;;;;;;;;;;;;;;19.69;36.88;102651.09;2059816;28;2124;-66
2024/01/11 00:49:47;;;;;;;;;;;;;;;19.67;36.98;102637.28;2057886;28;2146;-66
2024/01/11 00:50:49;;;;;;;;;;;;;;;19.67;36.80;102649.53;2057052;28;2125;-66
2024/01/11 00:51:50;;;;;;;;;;;;;;;19.69;36.95;102636.72;2059287;28;2040;-66
2024/01/11 00:52:51;;;;;;;;;;;;;;;19.68;36.87;102638.81;2058219;28;2123;-66
2024/01/11 00:53:53;;;;;;;;;;;;;;;19.66;36.86;102627.91;2058696;28;2411;-66
2024/01/11 00:54:54;;;;;;;;;;;;;;;19.67;36.88;102629.41;2061192;28;1699;-66
2024/01/11 00:55:57;;;;;;;;;;;;;;;19.67;36.94;102620.03;2055918;28;2158;-66
2024/01/11 00:56:58;;;;;;;;;;;;;;;19.66;36.88;102619.28;2058130;28;2200;-66
2024/01/11 00:57:59;;;;;;;;;;;;;;;19.66;36.83;102627.91;2058276;28;2187;-66
2024/01/11 00:59:01;;;;;;;;;;;;;;;19.67;36.71;102629.41;2059745;28;2125;-66
2024/01/11 01:00:02;;;;;;;;;;;;;;;19.67;36.79;102631.53;2053395;28;6479;-66
2024/01/11 01:01:05;;;;;;;;;;;;;;;19.67;36.77;102620.78;2059107;28;2231;-66
2024/01/11 01:02:07;;;;;;;;;;;;;;;19.67;36.88;102623.66;2056978;28;2147;-66
2024/01/11 01:03:08;;;;;;;;;;;;;;;19.67;36.83;102615.03;2057429;28;2175;-66
2024/01/11 01:04:10;;;;;;;;;;;;;;;19.68;36.91;102627.31;2057483;28;2379;-66
2024/01/11 01:05:11;;;;;;;;;;;;;;;19.70;36.82;102618.13;2059818;28;2117;-66
2024/01/11 01:06:12;;;;;;;;;;;;;;;19.70;36.89;102623.84;2060597;28;2224;-66
2024/01/11 01:07:14;;;;;;;;;;;;;;;19.70;36.70;102618.13;2059603;28;2133;-66
2024/01/11 01:08:15;;;;;;;;;;;;;;;19.70;36.79;102612.38;2057823;28;2249;-66
2024/01/11 01:09:17;;;;;;;;;;;;;;;19.70;36.71;102612.38;2059511;28;2100;-66
2024/01/11 01:10:18;;;;;;;;;;;;;;;19.70;36.74;102606.63;2051218;28;2183;-67
2024/01/11 01:11:20;;;;;;;;;;;;;;;19.70;36.86;102613.13;2050270;28;2236;-77
2024/01/11 01:12:21;;;;;;;;;;;;;;;19.71;36.77;102619.63;2060577;28;2093;-63
2024/01/11 01:13:22;;;;;;;;;;;;;;;19.71;36.79;102616.75;2057632;28;2154;-68
2024/01/11 01:14:24;;;;;;;;;;;;;;;19.72;36.66;102613.28;2059016;28;2106;-64
2024/01/11 01:15:25;;;;;;;;;;;;;;;19.73;36.81;102602.56;2059604;28;2407;-63
2024/01/11 01:16:27;;;;;;;;;;;;;;;19.72;36.71;102604.66;2056673;28;2148;-63
2024/01/11 01:17:28;;;;;;;;;;;;;;;19.73;36.74;102616.94;2052802;28;2264;-63
2024/01/11 01:18:30;;;;;;;;;;;;;;;19.74;36.76;102601.19;2051415;28;2257;-64
2024/01/11 01:19:32;;;;;;;;;;;;;;;19.74;36.77;102601.19;2058497;28;2192;-63
2024/01/11 01:20:33;;;;;;;;;;;;;;;19.73;36.80;102585.31;2051943;28;2405;-63
2024/01/11 01:21:35;;;;;;;;;;;;;;;19.73;36.78;102582.44;2051743;28;2214;-64
2024/01/11 01:22:36;;;;;;;;;;;;;;;19.72;36.85;102575.16;2060458;28;2085;-63
2024/01/11 01:23:38;;;;;;;;;;;;;;;19.72;36.88;102580.91;2059055;28;2268;-63
2024/01/11 01:24:39;;;;;;;;;;;;;;;19.73;36.88;102585.31;2051734;28;2083;-63
2024/01/11 01:25:40;;;;;;;;;;;;;;;19.73;36.88;102596.81;2051008;28;2269;-64
2024/01/11 01:26:42;;;;;;;;;;;;;;;19.73;36.83;102599.69;2058962;28;2138;-64
2024/01/11 01:27:44;;;;;;;;;;;;;;;19.72;36.81;102593.16;2056575;28;2115;-63
2024/01/11 01:28:45;;;;;;;;;;;;;;;19.72;36.80;102598.16;2058615;28;2362;-64
2024/01/11 01:29:46;;;;;;;;;;;;;;;19.70;36.85;102592.25;2059687;28;2148;-64
2024/01/11 01:30:48;;;;;;;;;;;;;;;19.69;36.82;102593.63;2057707;28;6159;-63
2024/01/11 01:31:49;;;;;;;;;;;;;;;19.69;36.83;102599.38;2061444;28;2389;-63
2024/01/11 01:32:51;;;;;;;;;;;;;;;19.69;36.86;102593.63;2058276;28;2341;-63
2024/01/11 01:33:52;;;;;;;;;;;;;;;19.68;36.74;102592.84;2057787;28;2108;-63
2024/01/11 01:34:54;;;;;;;;;;;;;;;19.66;36.77;102593.44;2057986;28;2112;-63
2024/01/11 01:35:55;;;;;;;;;;;;;;;19.66;36.86;102595.53;2057776;28;2097;-64
2024/01/11 01:36:57;;;;;;;;;;;;;;;19.66;36.65;102590.56;2058603;28;2062;-64
2024/01/11 01:37:58;;;;;;;;;;;;;;;19.66;36.75;102596.31;2058908;28;2157;-63
2024/01/11 01:39:00;;;;;;;;;;;;;;;19.66;36.92;102596.31;2058410;28;2119;-64
2024/01/11 01:40:01;;;;;;;;;;;;;;;19.66;36.93;102607.78;2059789;28;2085;-63
2024/01/11 01:41:02;;;;;;;;;;;;;;;19.66;36.85;102607.78;2058019;28;2165;-63
2024/01/11 01:42:04;;;;;;;;;;;;;;;19.64;36.88;102601.88;2052376;28;2242;-63
2024/01/11 01:43:06;;;;;;;;;;;;;;;19.65;36.87;102606.28;2048779;28;2079;-63
2024/01/11 01:44:07;;;;;;;;;;;;;;;19.67;36.78;102608.56;2060078;28;1654;-63
2024/01/11 01:45:09;;;;;;;;;;;;;;;19.66;36.87;102616.41;2060933;28;1690;-63
2024/01/11 01:46:10;;;;;;;;;;;;;;;19.66;36.90;102625.03;2061591;28;2088;-63
2024/01/11 01:47:12;;;;;;;;;;;;;;;19.66;36.92;102613.53;2059048;28;2031;-64
2024/01/11 01:48:13;;;;;;;;;;;;;;;19.67;36.91;102609.31;2059348;28;2222;-64
2024/01/11 01:49:18;;;;;;;;;;;;;;;19.66;36.84;102610.66;2056061;28;2392;-64
2024/01/11 01:50:20;;;;;;;;;;;;;;;19.66;36.85;102613.53;2061052;28;1679;-64
2024/01/11 01:51:22;;;;;;;;;;;;;;;19.66;36.82;102592.69;2061297;28;1974;-63
2024/01/11 01:52:23;;;;;;;;;;;;;;;19.69;36.87;102593.63;2058011;28;2297;-64
2024/01/11 01:53:25;;;;;;;;;;;;;;;19.68;36.68;102595.72;2059551;28;2132;-63
2024/01/11 01:54:26;;;;;;;;;;;;;;;19.70;36.82;102600.88;2057023;28;2211;-64
2024/01/11 01:55:27;;;;;;;;;;;;;;;19.67;36.85;102592.06;2056526;28;2162;-64
2024/01/11 01:56:29;;;;;;;;;;;;;;;19.69;36.89;102593.63;2057967;28;2164;-64
2024/01/11 01:57:30;;;;;;;;;;;;;;;19.67;36.72;102603.56;2059833;28;2393;-63
2024/01/11 01:58:32;;;;;;;;;;;;;;;19.67;36.76;102597.81;2055728;28;2275;-63
2024/01/11 01:59:33;;;;;;;;;;;;;;;19.69;36.83;102593.63;2051821;28;2401;-63
2024/01/11 02:00:34;;;;;;;;;;;;;;;19.70;36.79;102584.41;2049867;28;6068;-63
2024/01/11 02:01:36;;;;;;;;;;;;;;;19.69;36.82;102580.00;2056268;28;2137;-63
2024/01/11 02:02:37;;;;;;;;;;;;;;;19.70;36.79;102577.88;2059908;28;2168;-64
2024/01/11 02:03:39;;;;;;;;;;;;;;;19.67;36.94;102574.81;2060208;28;2242;-64
2024/01/11 02:04:41;;;;;;;;;;;;;;;19.71;36.72;102585.16;2057428;28;2205;-64
2024/01/11 02:05:42;;;;;;;;;;;;;;;19.69;36.71;102582.13;2059918;28;2205;-63
2024/01/11 02:06:47;;;;;;;;;;;;;;;19.71;36.66;102590.91;2050737;28;2382;-64
2024/01/11 02:07:49;;;;;;;;;;;;;;;19.71;36.78;102590.91;2051122;28;2176;-63
2024/01/11 02:08:52;;;;;;;;;;;;;;;19.69;36.84;102608.72;2058959;28;2211;-64
2024/01/11 02:09:53;;;;;;;;;;;;;;;19.69;36.82;102613.72;2057462;28;2141;-64
2024/01/11 02:10:55;;;;;;;;;;;;;;;19.69;36.84;102616.59;2057549;28;2213;-63
2024/01/11 02:11:56;;;;;;;;;;;;;;;19.67;36.85;102609.31;2057689;28;2194;-64
2024/01/11 02:12:57;;;;;;;;;;;;;;;19.67;36.86;102611.44;2050833;28;2642;-63
2024/01/11 02:13:59;;;;;;;;;;;;;;;19.65;36.87;102609.16;2050848;28;2126;-64
2024/01/11 02:15:03;;;;;;;;;;;;;;;19.65;36.93;102611.25;2059292;28;2202;-63
2024/01/11 02:16:04;;;;;;;;;;;;;;;19.64;36.83;102610.50;2058757;28;2121;-63
2024/01/11 02:17:06;;;;;;;;;;;;;;;19.64;36.82;102604.75;2060524;28;2125;-63
2024/01/11 02:18:07;;;;;;;;;;;;;;;19.64;36.95;102607.63;2057049;28;2168;-64
2024/01/11 02:19:09;;;;;;;;;;;;;;;19.64;36.79;102615.50;2060079;28;2544;-63
2024/01/11 02:20:11;;;;;;;;;;;;;;;19.63;36.91;102626.25;2051478;28;2042;-63
2024/01/11 02:21:14;;;;;;;;;;;;;;;19.62;36.95;102644.84;2050133;28;2159;-63
2024/01/11 02:22:17;;;;;;;;;;;;;;;19.62;37.00;102649.84;2059319;28;2137;-63
2024/01/11 02:23:19;;;;;;;;;;;;;;;19.62;36.96;102653.47;2059791;28;2173;-63
2024/01/11 02:24:20;;;;;;;;;;;;;;;19.62;36.93;102652.72;2058759;28;2172;-64
2024/01/11 02:25:22;;;;;;;;;;;;;;;19.63;36.76;102651.34;2057588;28;2122;-64
2024/01/11 02:26:23;;;;;;;;;;;;;;;19.62;36.81;102647.72;2057980;28;2124;-64
2024/01/11 02:27:25;;;;;;;;;;;;;;;19.62;36.91;102639.09;2058606;28;2050;-64
2024/01/11 02:28:26;;;;;;;;;;;;;;;19.61;36.96;102640.47;2056150;28;2184;-64
2024/01/11 02:29:28;;;;;;;;;;;;;;;19.62;36.96;102646.97;2058544;28;1695;-64
2024/01/11 02:30:29;;;;;;;;;;;;;;;19.62;36.95;102641.97;2056992;28;6400;-64
2024/01/11 02:31:30;;;;;;;;;;;;;;;19.62;36.90;102641.97;2056364;28;2108;-63
2024/01/11 02:32:32;;;;;;;;;;;;;;;19.62;36.90;102641.97;2058069;28;2178;-64
2024/01/11 02:33:34;;;;;;;;;;;;;;;19.63;36.83;102643.50;2059630;28;2131;-64
2024/01/11 02:34:35;;;;;;;;;;;;;;;19.62;36.88;102636.22;2057487;28;2152;-64
2024/01/11 02:35:39;;;;;;;;;;;;;;;19.64;36.87;102645.00;2058574;28;2372;-63
2024/01/11 02:36:43;;;;;;;;;;;;;;;19.63;36.89;102636.97;2059227;28;2121;-64
2024/01/11 02:37:44;;;;;;;;;;;;;;;19.62;36.79;102635.47;2056700;28;2125;-64
2024/01/11 02:38:46;;;;;;;;;;;;;;;19.63;36.78;102637.75;2058951;28;2231;-64
2024/01/11 02:39:47;;;;;;;;;;;;;;;19.64;36.80;102638.50;2051926;28;2245;-64
2024/01/11 02:40:49;;;;;;;;;;;;;;;19.63;36.79;102652.13;2054434;28;2500;-62
2024/01/11 02:41:50;;;;;;;;;;;;;;;19.63;36.86;102652.13;2057683;28;2403;-63
2024/01/11 02:42:52;;;;;;;;;;;;;;;19.63;36.89;102655.00;2059413;28;2232;-63
2024/01/11 02:43:53;;;;;;;;;;;;;;;19.64;36.85;102658.63;2060015;28;2216;-63
2024/01/11 02:44:55;;;;;;;;;;;;;;;19.65;36.88;102652.28;2045317;28;2261;-63
2024/01/11 02:45:58;;;;;;;;;;;;;;;19.65;36.88;102658.03;2043215;28;2061;-63
2024/01/11 02:46:59;;;;;;;;;;;;;;;19.65;36.78;102658.03;2061799;28;2196;-63
2024/01/11 02:48:01;;;;;;;;;;;;;;;19.66;36.91;102653.78;2059864;28;2114;-63
2024/01/11 02:49:02;;;;;;;;;;;;;;;19.66;36.84;102650.91;2059563;28;2109;-63
2024/01/11 02:50:04;;;;;;;;;;;;;;;19.66;36.72;102641.53;2060530;28;2130;-63
2024/01/11 02:51:06;;;;;;;;;;;;;;;19.67;36.78;102637.28;2057366;28;2133;-63
2024/01/11 02:52:07;;;;;;;;;;;;;;;19.66;36.79;102630.78;2060121;28;2162;-63
2024/01/11 02:53:09;;;;;;;;;;;;;;;19.66;36.73;102636.53;2059137;28;2085;-63
2024/01/11 02:54:10;;;;;;;;;;;;;;;19.66;36.75;102636.53;2060036;28;2111;-63
2024/01/11 02:55:12;;;;;;;;;;;;;;;19.66;36.87;102639.41;2058635;28;2126;-63
2024/01/11 02:56:13;;;;;;;;;;;;;;;19.66;36.98;102639.41;2060687;28;2193;-62
2024/01/11 02:57:15;;;;;;;;;;;;;;;19.66;36.78;102630.03;2058548;28;2117;-63
2024/01/11 02:58:16;;;;;;;;;;;;;;;19.65;36.76;102623.53;2060628;28;2247;-63
2024/01/11 02:59:18;;;;;;;;;;;;;;;19.63;36.80;102617.63;2060009;28;2065;-63
2024/01/11 03:00:19;;;;;;;;;;;;;;;19.63;36.76;102603.25;2061262;28;6011;-63
2024/01/11 03:01:20;;;;;;;;;;;;;;;19.62;36.89;102610.34;2061491;28;2161;-63
2024/01/11 03:02:22;;;;;;;;;;;;;;;19.61;36.93;102605.97;2061259;28;2287;-63
2024/01/11 03:03:23;;;;;;;;;;;;;;;19.61;36.93;102596.59;2061060;28;2121;-63
2024/01/11 03:04:25;;;;;;;;;;;;;;;19.60;36.90;102592.94;2053239;28;2353;-63
2024/01/11 03:05:26;;;;;;;;;;;;;;;19.58;36.89;102601.41;2052580;28;2213;-63
2024/01/11 03:06:28;;;;;;;;;;;;;;;19.59;37.03;102611.56;2063201;28;2081;-62
2024/01/11 03:07:30;;;;;;;;;;;;;;;19.58;37.00;102618.66;2061606;28;2093;-63
2024/01/11 03:08:31;;;;;;;;;;;;;;;19.59;36.96;102607.94;2060424;28;2105;-63
2024/01/11 03:09:34;;;;;;;;;;;;;;;19.59;37.04;102608.69;2057511;28;2190;-63
2024/01/11 03:10:37;;;;;;;;;;;;;;;19.61;36.87;102605.22;2061059;28;2066;-63
2024/01/11 03:11:38;;;;;;;;;;;;;;;19.61;36.92;102596.59;2056885;28;2172;-63
2024/01/11 03:12:40;;;;;;;;;;;;;;;19.61;36.99;102603.09;2057683;28;2183;-63
2024/01/11 03:13:42;;;;;;;;;;;;;;;19.62;36.94;102606.72;2063268;28;1623;-63
2024/01/11 03:14:43;;;;;;;;;;;;;;;19.61;36.89;102608.84;2062141;28;1782;-63
2024/01/11 03:15:44;;;;;;;;;;;;;;;19.62;36.88;102624.72;2061203;28;1821;-63
2024/01/11 03:16:46;;;;;;;;;;;;;;;19.62;36.81;102624.72;2064136;28;1726;-63
2024/01/11 03:17:47;;;;;;;;;;;;;;;19.62;36.86;102624.72;2066722;28;1714;-63
2024/01/11 03:18:49;;;;;;;;;;;;;;;19.63;36.88;102625.47;2065350;28;1763;-63
2024/01/11 03:19:51;;;;;;;;;;;;;;;19.63;36.88;102637.75;2059600;28;1639;-63
2024/01/11 03:20:52;;;;;;;;;;;;;;;19.63;36.88;102632.00;2058212;28;2051;-63
2024/01/11 03:21:53;;;;;;;;;;;;;;;19.63;36.95;102640.63;2053718;28;2137;-63
2024/01/11 03:22:55;;;;;;;;;;;;;;;19.63;36.93;102637.75;2059941;28;2148;-63
2024/01/11 03:23:56;;;;;;;;;;;;;;;19.64;36.93;102632.75;2057832;28;1752;-63
2024/01/11 03:24:58;;;;;;;;;;;;;;;19.64;36.86;102622.00;2061612;28;1611;-64
2024/01/11 03:25:59;;;;;;;;;;;;;;;19.65;36.82;102628.50;2063435;28;1857;-63
2024/01/11 03:27:02;;;;;;;;;;;;;;;19.64;36.84;102627.75;2057135;28;1995;-63
2024/01/11 03:28:03;;;;;;;;;;;;;;;19.65;36.79;102629.28;2061107;28;2078;-63
2024/01/11 03:29:05;;;;;;;;;;;;;;;19.65;36.76;102629.28;2061424;28;2090;-63
2024/01/11 03:30:07;;;;;;;;;;;;;;;19.66;36.70;102622.16;2058800;28;6026;-63
2024/01/11 03:31:09;;;;;;;;;;;;;;;19.67;36.70;102620.03;2061180;28;2097;-63
2024/01/11 03:32:13;;;;;;;;;;;;;;;19.67;36.77;102615.03;2059583;28;2297;-63
2024/01/11 03:33:15;;;;;;;;;;;;;;;19.67;36.75;102602.81;2058163;28;2185;-63
2024/01/11 03:34:16;;;;;;;;;;;;;;;19.67;36.72;102611.44;2058320;28;2140;-63
2024/01/11 03:35:18;;;;;;;;;;;;;;;19.67;36.75;102612.19;2060904;28;2138;-63
2024/01/11 03:36:22;;;;;;;;;;;;;;;19.67;36.67;102605.69;2060736;28;2089;-63
2024/01/11 03:37:23;;;;;;;;;;;;;;;19.66;36.78;102607.78;2060995;28;2082;-62
2024/01/11 03:38:25;;;;;;;;;;;;;;;19.66;36.84;102613.53;2059981;28;2118;-63
2024/01/11 03:39:27;;;;;;;;;;;;;;;19.67;36.80;102597.06;2059635;28;2125;-63
2024/01/11 03:40:28;;;;;;;;;;;;;;;19.67;36.75;102603.56;2060658;28;2093;-63
2024/01/11 03:41:29;;;;;;;;;;;;;;;19.66;36.81;102609.91;2060068;28;2217;-63
2024/01/11 03:42:31;;;;;;;;;;;;;;;19.64;36.79;102599.00;2059579;28;2182;-63
2024/01/11 03:43:32;;;;;;;;;;;;;;;19.64;36.85;102599.00;2058785;28;2348;-63
2024/01/11 03:44:35;;;;;;;;;;;;;;;19.63;36.83;102586.03;2060353;28;2207;-63
2024/01/11 03:45:37;;;;;;;;;;;;;;;19.63;36.76;102579.50;2059897;28;2202;-62
2024/01/11 03:46:39;;;;;;;;;;;;;;;19.61;36.79;102571.50;2058266;28;2210;-63
2024/01/11 03:47:42;;;;;;;;;;;;;;;19.60;36.96;102575.72;2059282;28;2137;-63
2024/01/11 03:48:43;;;;;;;;;;;;;;;19.60;36.88;102572.84;2059697;28;2198;-63
2024/01/11 03:49:45;;;;;;;;;;;;;;;19.60;36.86;102569.97;2059274;28;2098;-63
2024/01/11 03:50:46;;;;;;;;;;;;;;;19.61;36.97;102567.88;2059057;28;2251;-63
2024/01/11 03:51:48;;;;;;;;;;;;;;;19.60;36.93;102564.22;2059844;28;2396;-63
2024/01/11 03:52:49;;;;;;;;;;;;;;;19.60;37.02;102558.47;2045510;28;2140;-63
2024/01/11 03:53:50;;;;;;;;;;;;;;;19.62;36.77;102563.63;2045038;28;2226;-63
2024/01/11 03:54:52;;;;;;;;;;;;;;;19.62;36.89;102552.88;2060976;28;2174;-63
2024/01/11 03:55:53;;;;;;;;;;;;;;;19.64;36.87;102550.16;2060331;28;2038;-63
2024/01/11 03:56:55;;;;;;;;;;;;;;;19.62;36.82;102538.50;2059737;28;2420;-65
2024/01/11 03:57:56;;;;;;;;;;;;;;;19.63;36.81;102534.28;2057003;28;2114;-65
2024/01/11 03:58:58;;;;;;;;;;;;;;;19.65;36.85;102540.19;2058826;28;2204;-65
2024/01/11 03:59:59;;;;;;;;;;;;;;;19.64;36.66;102535.78;2059512;28;2205;-65
2024/01/11 04:01:00;;;;;;;;;;;;;;;19.65;36.84;102540.19;2058166;28;5979;-65
2024/01/11 04:02:02;;;;;;;;;;;;;;;19.66;36.71;102550.31;2061323;28;2188;-65
2024/01/11 04:03:03;;;;;;;;;;;;;;;19.66;36.75;102543.81;2059399;28;2306;-65
2024/01/11 04:04:05;;;;;;;;;;;;;;;19.67;36.80;102551.81;2060217;28;2255;-65
2024/01/11 04:05:06;;;;;;;;;;;;;;;19.67;36.80;102557.56;2059156;28;2166;-65
2024/01/11 04:06:08;;;;;;;;;;;;;;;19.68;36.74;102561.22;2059746;28;2101;-65
2024/01/11 04:07:09;;;;;;;;;;;;;;;19.68;36.71;102558.34;2058998;28;2218;-65
2024/01/11 04:08:11;;;;;;;;;;;;;;;19.68;36.78;102564.09;2062890;28;2074;-65
2024/01/11 04:09:12;;;;;;;;;;;;;;;19.69;36.75;102565.63;2057221;28;1642;-65
2024/01/11 04:10:15;;;;;;;;;;;;;;;19.70;36.84;102572.13;2058866;28;2021;-65
2024/01/11 04:11:16;;;;;;;;;;;;;;;19.70;36.84;102572.13;2059722;28;2132;-65
2024/01/11 04:12:18;;;;;;;;;;;;;;;19.70;36.92;102567.16;2059702;28;2077;-65
2024/01/11 04:13:19;;;;;;;;;;;;;;;19.70;36.83;102554.88;2058348;28;2188;-65
2024/01/11 04:14:23;;;;;;;;;;;;;;;19.71;36.82;102547.78;2052410;28;2193;-65
2024/01/11 04:15:25;;;;;;;;;;;;;;;19.71;36.76;102550.66;2044026;28;2127;-65
2024/01/11 04:16:26;;;;;;;;;;;;;;;19.71;36.73;102550.66;2053417;28;2102;-65
2024/01/11 04:17:28;;;;;;;;;;;;;;;19.71;36.84;102559.28;2058568;28;2133;-65
2024/01/11 04:18:29;;;;;;;;;;;;;;;19.72;36.80;102557.91;2059043;28;2113;-65
2024/01/11 04:19:31;;;;;;;;;;;;;;;19.70;36.77;102558.53;2060055;28;2122;-65
2024/01/11 04:20:32;;;;;;;;;;;;;;;19.71;36.75;102562.16;2058357;28;2132;-65
2024/01/11 04:21:34;;;;;;;;;;;;;;;19.72;36.89;102557.91;2060610;28;2173;-65
2024/01/11 04:22:35;;;;;;;;;;;;;;;19.71;36.84;102556.41;2056691;28;2113;-65
2024/01/11 04:23:36;;;;;;;;;;;;;;;19.72;36.78;102552.16;2057264;28;2186;-65
2024/01/11 04:24:38;;;;;;;;;;;;;;;19.71;36.83;102544.91;2060151;28;2047;-65
2024/01/11 04:25:39;;;;;;;;;;;;;;;19.73;36.80;102550.81;2059438;28;2157;-65
2024/01/11 04:26:41;;;;;;;;;;;;;;;19.73;36.77;102553.69;2059331;28;2227;-65
2024/01/11 04:27:42;;;;;;;;;;;;;;;19.72;36.72;102558.66;2060227;28;2137;-65
2024/01/11 04:28:47;;;;;;;;;;;;;;;19.73;36.70;102559.44;2060264;28;2101;-65
2024/01/11 04:29:49;;;;;;;;;;;;;;;19.73;36.79;102548.69;2059533;28;2106;-65
2024/01/11 04:30:50;;;;;;;;;;;;;;;19.73;36.87;102550.81;2057468;28;6524;-65
2024/01/11 04:31:52;;;;;;;;;;;;;;;19.73;36.78;102559.44;2057119;28;2354;-65
2024/01/11 04:32:53;;;;;;;;;;;;;;;19.73;36.71;102559.44;2058457;28;2370;-65
2024/01/11 04:33:55;;;;;;;;;;;;;;;19.73;36.77;102559.44;2060462;28;2124;-65
2024/01/11 04:34:56;;;;;;;;;;;;;;;19.73;36.73;102560.19;2055379;28;2070;-65
2024/01/11 04:35:58;;;;;;;;;;;;;;;19.73;36.80;102556.56;2058179;28;2315;-65
2024/01/11 04:36:59;;;;;;;;;;;;;;;19.74;36.78;102560.94;2060749;28;2146;-66
2024/01/11 04:38:01;;;;;;;;;;;;;;;19.73;36.87;102562.31;2058947;28;2138;-65
2024/01/11 04:39:02;;;;;;;;;;;;;;;19.72;36.77;102555.03;2058301;28;2146;-65
2024/01/11 04:40:04;;;;;;;;;;;;;;;19.74;36.88;102558.06;2060697;28;2146;-65
2024/01/11 04:41:09;;;;;;;;;;;;;;;19.74;36.86;102560.94;2058993;28;2161;-65
2024/01/11 04:42:10;;;;;;;;;;;;;;;19.74;36.86;102563.81;2059269;28;2093;-65
2024/01/11 04:43:12;;;;;;;;;;;;;;;19.74;36.91;102569.56;2060326;28;2275;-65
2024/01/11 04:44:13;;;;;;;;;;;;;;;19.75;36.73;102562.47;2058591;28;2360;-65
2024/01/11 04:45:15;;;;;;;;;;;;;;;19.74;36.92;102558.81;2059511;28;2148;-65
2024/01/11 04:46:20;;;;;;;;;;;;;;;19.75;36.92;102550.97;2058422;28;2161;-63
2024/01/11 04:47:21;;;;;;;;;;;;;;;19.76;36.78;102546.72;2060431;28;2105;-65
2024/01/11 04:48:23;;;;;;;;;;;;;;;19.75;36.79;102551.72;2057509;28;2178;-65
2024/01/11 04:49:24;;;;;;;;;;;;;;;19.76;36.88;102558.22;2059443;28;2116;-65
2024/01/11 04:50:26;;;;;;;;;;;;;;;19.75;36.95;102574.72;2060405;28;2471;-65
2024/01/11 04:51:27;;;;;;;;;;;;;;;19.76;36.95;102575.47;2058488;28;2326;-63
2024/01/11 04:52:29;;;;;;;;;;;;;;;19.76;36.91;102570.47;2059259;28;2158;-62
2024/01/11 04:53:30;;;;;;;;;;;;;;;19.77;36.89;102571.22;2057195;28;2344;-65
2024/01/11 04:54:31;;;;;;;;;;;;;;;19.78;36.91;102555.50;2060528;28;2376;-65
2024/01/11 04:55:33;;;;;;;;;;;;;;;19.77;36.93;102549.00;2061846;28;1828;-65
2024/01/11 04:56:34;;;;;;;;;;;;;;;19.78;36.83;102549.75;2064569;28;1779;-65
2024/01/11 04:57:36;;;;;;;;;;;;;;;19.78;36.98;102546.88;2061020;28;1735;-65
2024/01/11 04:58:38;;;;;;;;;;;;;;;19.77;36.86;102539.59;2058882;28;2124;-65
2024/01/11 04:59:40;;;;;;;;;;;;;;;19.79;36.95;102539.75;2059242;28;2395;-65
2024/01/11 05:00:41;;;;;;;;;;;;;;;19.78;36.97;102544.75;2058517;28;6049;-65
2024/01/11 05:01:45;;;;;;;;;;;;;;;19.79;36.92;102545.50;2056624;28;2102;-65
2024/01/11 05:02:46;;;;;;;;;;;;;;;19.78;37.02;102544.75;2060152;28;2361;-65
2024/01/11 05:03:48;;;;;;;;;;;;;;;19.78;36.97;102550.50;2060147;28;2121;-65
2024/01/11 05:04:50;;;;;;;;;;;;;;;19.79;37.01;102545.50;2057435;28;2115;-65
2024/01/11 05:05:51;;;;;;;;;;;;;;;19.78;37.05;102538.25;2058406;28;2162;-65
2024/01/11 05:06:53;;;;;;;;;;;;;;;19.79;37.02;102528.25;2059084;28;2073;-65
2024/01/11 05:07:54;;;;;;;;;;;;;;;19.80;36.96;102524.03;2061386;28;2176;-65
2024/01/11 05:08:56;;;;;;;;;;;;;;;19.80;36.93;102524.03;2060416;28;2179;-64
2024/01/11 05:09:57;;;;;;;;;;;;;;;19.81;36.96;102519.78;2058142;28;2110;-63
2024/01/11 05:10:59;;;;;;;;;;;;;;;19.81;37.04;102514.03;2059956;28;2083;-64
2024/01/11 05:12:00;;;;;;;;;;;;;;;19.80;37.02;102506.78;2059805;28;2123;-65
2024/01/11 05:13:02;;;;;;;;;;;;;;;19.80;36.87;102495.28;2058849;28;2408;-65
2024/01/11 05:14:03;;;;;;;;;;;;;;;19.81;37.00;102485.28;2060062;28;2058;-65
2024/01/11 05:15:06;;;;;;;;;;;;;;;19.80;36.92;102483.78;2050798;28;2148;-65
2024/01/11 05:16:15;;;;;;;;;;;;;;;19.79;36.98;102482.25;2049780;28;2168;-63
2024/01/11 05:17:17;;;;;;;;;;;;;;;19.80;37.09;102498.16;2056975;28;2247;-62
2024/01/11 05:18:18;;;;;;;;;;;;;;;19.81;37.11;102497.56;2057627;28;2449;-65
2024/01/11 05:19:20;;;;;;;;;;;;;;;19.80;37.22;102504.66;2060279;28;2143;-65
2024/01/11 05:20:21;;;;;;;;;;;;;;;19.80;37.22;102512.53;2058965;28;2161;-69
2024/01/11 05:21:23;;;;;;;;;;;;;;;19.80;37.12;102512.53;2061320;28;2081;-66